CheckWX is a tool to help pilots better visualize weather data.  It is not intended as a substitute for an official pre-flight weather briefing.

08:56:43 UTC

KOFF TAF
Offutt AFB Airport
Omaha, Nebraska, USA
TAF COR KOFF 120450Z 1202/1308 13009KT 9999 BKN220 WS010/15035KT QNH3015INS BECMG 1205/1206 17009KT 9999 BKN050 BKN220 WS010/20035KT 620502 QNH3005INS BECMG 1209/1210 17009KT 9999 OVC020 WS010/20035KT 620201 QNH3002INS BECMG 1211/1212 23009KT 9999 OVC020 620201 QNH2998INS BECMG 1215/1216 31009KT 9999 SCT020 BKN200 QNH3000INS WND VRB06KT AFT 1300 TX06/1220Z TNM02/1204Z

Dec-12@
02:00 UTC

Dec-12 @ 02:00 UTC

Dec-12@
05:00 UTC

Dec-12 @ 05:00 UTC

TAF COR KOFF 120450Z 1202/1308 13009KT 9999 BKN220 WS010/15035KT QNH3015INS

Expired

Wind
  • 130° at 9 KTS
Cloud Levels
  • Broken at 22,000' AGL

Dec-12@
05:00 UTC

Dec-12 @ 05:00 UTC

Dec-12@
09:00 UTC

Dec-12 @ 09:00 UTC

BECMG 1205/1206 17009KT 9999 BKN050 BKN220 WS010/20035KT 620502 QNH3005INS

Becoming

Becoming Conditions expected by Thu, Dec 12, 2019 @ 06:00 UTC

Wind
  • 170° at 9 KTS
Cloud Levels
  • Broken at 5,000' AGL
  • Broken at 22,000' AGL
Icing
Light icing in cloud expected at 5,000' AGL extending to 7,000' AGL

Dec-12@
09:00 UTC

Dec-12 @ 09:00 UTC

Dec-12@
11:00 UTC

Dec-12 @ 11:00 UTC

BECMG 1209/1210 17009KT 9999 OVC020 WS010/20035KT 620201 QNH3002INS

Becoming

Becoming Conditions expected by Thu, Dec 12, 2019 @ 10:00 UTC

Wind
  • 170° at 9 KTS
Cloud Levels
  • Overcast at 2,000' AGL
Icing
Light icing in cloud expected at 2,000' AGL extending to 3,000' AGL

Dec-12@
11:00 UTC

Dec-12 @ 11:00 UTC

Dec-12@
15:00 UTC

Dec-12 @ 15:00 UTC

BECMG 1211/1212 23009KT 9999 OVC020 620201 QNH2998INS

Becoming

Becoming Conditions expected by Thu, Dec 12, 2019 @ 12:00 UTC

Wind
  • 230° at 9 KTS
Cloud Levels
  • Overcast at 2,000' AGL
Icing
Light icing in cloud expected at 2,000' AGL extending to 3,000' AGL

Dec-12@
15:00 UTC

Dec-12 @ 15:00 UTC

Dec-13@
08:00 UTC

Dec-13 @ 08:00 UTC

BECMG 1215/1216 31009KT 9999 SCT020 BKN200 QNH3000INS WND VRB06KT AFT 1300 TX06/1220Z TNM02/1204Z

Becoming

Becoming Conditions expected by Thu, Dec 12, 2019 @ 16:00 UTC

Wind
  • 310° at 9 KTS
Cloud Levels
  • Scattered at 2,000' AGL
  • Broken at 20,000' AGL